Time;durP1;ratioP1;P1;durP2;ratioP2;P2;SDS_P1;SDS_P2;PMS_P1;PMS_P2;Temp;Humidity;BMP_temperature;BMP_pressure;BME280_temperature;BME280_humidity;BME280_pressure;Samples;Min_cycle;Max_cycle;Signal;HPM_P1;HPM_P2
2022/01/23 00:00:16;;;;;;;;;33.00;30.00;;;;;;;;5086630;27;45591;-66
2022/01/23 00:02:43;;;;;;;;;36.50;33.50;;;;;;;;5081723;27;47285;-66
2022/01/23 00:05:08;;;;;;;;;38.50;35.25;;;;;;;;5064448;27;45642;-65
2022/01/23 00:07:34;;;;;;;;;41.75;37.00;;;;;;;;5085858;27;45705;-65
2022/01/23 00:10:04;;;;;;;;;39.50;34.25;;;;;;;;5084922;27;46557;-65
2022/01/23 00:12:33;;;;;;;;;49.25;38.00;;;;;;;;5083533;27;45823;-65
2022/01/23 00:17:42;;;;;;;;;50.25;40.00;;;;;;;;5091617;27;45482;-63
2022/01/23 00:20:08;;;;;;;;;37.00;33.50;;;;;;;;5090256;27;45474;-65
2022/01/23 00:22:40;;;;;;;;;42.00;37.25;;;;;;;;5089014;27;45427;-64
2022/01/23 00:30:33;;;;;;;;;39.50;35.75;;;;;;;;5084253;27;45451;-65
2022/01/23 00:33:00;;;;;;;;;43.00;36.25;;;;;;;;5087463;27;46056;-64
2022/01/23 00:35:26;;;;;;;;;42.00;34.75;;;;;;;;5082756;27;45631;-65
2022/01/23 00:37:52;;;;;;;;;40.75;32.75;;;;;;;;5087783;27;45591;-65
2022/01/23 00:40:17;;;;;;;;;33.75;28.75;;;;;;;;5068779;27;45536;-65
2022/01/23 00:42:43;;;;;;;;;40.50;36.75;;;;;;;;5084465;27;45434;-64
2022/01/23 00:45:30;;;;;;;;;37.00;34.00;;;;;;;;5081000;27;45186;-64
2022/01/23 00:48:01;;;;;;;;;31.25;29.50;;;;;;;;5087490;27;46576;-65
2022/01/23 00:50:26;;;;;;;;;35.50;30.00;;;;;;;;5083648;27;45446;-66
2022/01/23 00:52:52;;;;;;;;;30.25;23.50;;;;;;;;5090354;27;45434;-65
2022/01/23 00:55:17;;;;;;;;;34.50;29.00;;;;;;;;5092988;27;45403;-65
2022/01/23 00:57:42;;;;;;;;;34.25;30.00;;;;;;;;5075123;27;47689;-65
2022/01/23 01:00:08;;;;;;;;;33.00;28.50;;;;;;;;5074474;27;45495;-65
2022/01/23 01:02:33;;;;;;;;;32.25;31.25;;;;;;;;5094111;27;45462;-64
2022/01/23 01:04:59;;;;;;;;;33.75;25.00;;;;;;;;5091575;27;45433;-65
2022/01/23 01:07:24;;;;;;;;;35.50;28.75;;;;;;;;5091821;27;46618;-65
2022/01/23 01:09:52;;;;;;;;;28.50;28.50;;;;;;;;5093006;27;45542;-65
2022/01/23 01:12:23;;;;;;;;;37.00;30.50;;;;;;;;5092651;27;45463;-64
2022/01/23 01:17:28;;;;;;;;;36.75;31.25;;;;;;;;5094711;27;45924;-65
2022/01/23 01:36:18;;;;;;;;;30.75;27.50;;;;;;;;5010662;28;45447;-65
2022/01/23 01:38:43;;;;;;;;;28.75;26.00;;;;;;;;5000545;28;46624;-64
2022/01/23 01:41:09;;;;;;;;;30.50;30.00;;;;;;;;5014369;28;46205;-64
2022/01/23 01:43:34;;;;;;;;;32.25;31.00;;;;;;;;5013891;28;45852;-64
2022/01/23 01:45:59;;;;;;;;;31.75;30.25;;;;;;;;5010241;28;45511;-64
2022/01/23 01:48:25;;;;;;;;;41.00;37.75;;;;;;;;5002307;28;48501;-65
2022/01/23 01:50:53;;;;;;;;;43.00;40.00;;;;;;;;5011835;28;45863;-65
2022/01/23 01:53:19;;;;;;;;;39.25;35.00;;;;;;;;5025487;28;45463;-63
2022/01/23 01:55:48;;;;;;;;;42.50;34.50;;;;;;;;5007326;28;45470;-66
2022/01/23 02:01:00;;;;;;;;;32.50;30.00;;;;;;;;5013110;28;45375;-65
2022/01/23 02:08:44;;;;;;;;;43.25;37.00;;;;;;;;5078633;27;45412;-64
2022/01/23 02:11:16;;;;;;;;;47.75;38.50;;;;;;;;5074102;27;45424;-64
2022/01/23 02:13:50;;;;;;;;;37.75;35.75;;;;;;;;5073815;27;45370;-64
2022/01/23 02:24:33;;;;;;;;;38.50;33.75;;;;;;;;5085149;27;45526;-64
2022/01/23 02:56:58;;;;;;;;;30.25;30.00;;;;;;;;5090399;27;45495;-65
2022/01/23 02:59:26;;;;;;;;;39.25;31.75;;;;;;;;5075025;27;45602;-66
2022/01/23 03:04:35;;;;;;;;;31.25;28.25;;;;;;;;5090934;27;45526;-64
2022/01/23 03:15:07;;;;;;;;;37.75;28.25;;;;;;;;5009026;28;45929;-64
2022/01/23 03:28:50;;;;;;;;;40.00;32.25;;;;;;;;5008522;28;45482;-64
2022/01/23 03:33:44;;;;;;;;;30.00;29.00;;;;;;;;5010398;28;45631;-65
2022/01/23 03:36:09;;;;;;;;;25.50;22.75;;;;;;;;5010579;28;45487;-65
2022/01/23 03:38:34;;;;;;;;;30.25;27.00;;;;;;;;5010913;28;45428;-65
2022/01/23 03:40:59;;;;;;;;;36.50;30.25;;;;;;;;5010637;28;45432;-65
2022/01/23 03:43:34;;;;;;;;;31.25;30.00;;;;;;;;5010359;28;45648;-65
2022/01/23 03:51:09;;;;;;;;;32.75;29.25;;;;;;;;5038295;27;45452;-65
2022/01/23 03:53:34;;;;;;;;;34.00;27.50;;;;;;;;5087302;27;46267;-64
2022/01/23 03:55:59;;;;;;;;;27.00;24.00;;;;;;;;5086510;27;45843;-65
2022/01/23 03:58:25;;;;;;;;;35.75;29.50;;;;;;;;5081127;27;45450;-65
2022/01/23 04:00:50;;;;;;;;;25.00;23.25;;;;;;;;5088417;27;45356;-65
2022/01/23 04:03:18;;;;;;;;;30.00;25.50;;;;;;;;5079791;27;46341;-64
2022/01/23 04:05:43;;;;;;;;;29.50;26.75;;;;;;;;5074441;27;46312;-65
2022/01/23 04:08:08;;;;;;;;;32.50;25.25;;;;;;;;5083881;27;45560;-64
2022/01/23 04:10:34;;;;;;;;;34.00;27.75;;;;;;;;5089404;27;45797;-65
2022/01/23 04:21:03;;;;;;;;;26.25;23.75;;;;;;;;5085899;27;45421;-64
2022/01/23 05:01:07;;;;;;;;;24.75;23.00;;;;;;;;5030414;28;45513;-64
2022/01/23 05:06:02;;;;;;;;;26.75;26.25;;;;;;;;5032487;28;45545;-64
2022/01/23 05:08:30;;;;;;;;;29.50;29.00;;;;;;;;5017618;28;45586;-64
2022/01/23 05:10:58;;;;;;;;;34.75;29.00;;;;;;;;5021893;28;45723;-65
2022/01/23 05:13:25;;;;;;;;;30.75;27.50;;;;;;;;5021850;28;46613;-65
2022/01/23 05:15:50;;;;;;;;;33.75;28.75;;;;;;;;5022161;28;46400;-65
2022/01/23 05:18:15;;;;;;;;;29.00;27.50;;;;;;;;5032522;28;45497;-65
2022/01/23 05:20:42;;;;;;;;;30.75;24.00;;;;;;;;5016684;28;45396;-65
2022/01/23 05:23:07;;;;;;;;;37.75;30.50;;;;;;;;5019679;28;45449;-65
2022/01/23 05:25:35;;;;;;;;;25.50;22.25;;;;;;;;5019481;28;46475;-65
2022/01/23 05:28:01;;;;;;;;;29.25;24.00;;;;;;;;5020258;28;45290;-64
2022/01/23 05:30:26;;;;;;;;;30.50;25.75;;;;;;;;5002878;28;45381;-65
2022/01/23 05:32:52;;;;;;;;;27.00;25.00;;;;;;;;5048813;27;45340;-65
2022/01/23 05:35:19;;;;;;;;;27.25;26.00;;;;;;;;5065951;28;46490;-64
2022/01/23 05:37:44;;;;;;;;;27.50;24.75;;;;;;;;5084670;27;45632;-65
2022/01/23 05:40:12;;;;;;;;;31.50;26.50;;;;;;;;5085965;27;45593;-65
2022/01/23 05:42:37;;;;;;;;;34.25;28.75;;;;;;;;5091575;27;45441;-64
2022/01/23 05:45:03;;;;;;;;;35.00;31.00;;;;;;;;5065132;28;46792;-65
2022/01/23 05:47:28;;;;;;;;;29.00;26.50;;;;;;;;5071944;27;45512;-64
2022/01/23 05:49:53;;;;;;;;;34.00;30.00;;;;;;;;5081092;27;45583;-65
2022/01/23 05:52:18;;;;;;;;;29.75;29.25;;;;;;;;5074810;27;45470;-65
2022/01/23 05:54:44;;;;;;;;;33.25;29.50;;;;;;;;5091488;27;45901;-64
2022/01/23 05:57:09;;;;;;;;;33.00;27.50;;;;;;;;5087455;27;45390;-64
2022/01/23 05:59:34;;;;;;;;;29.50;29.50;;;;;;;;5087917;27;45295;-64
2022/01/23 06:01:59;;;;;;;;;27.50;24.25;;;;;;;;5085264;27;45310;-64
2022/01/23 06:04:25;;;;;;;;;28.25;26.00;;;;;;;;5086253;27;46120;-65
2022/01/23 06:06:51;;;;;;;;;30.50;27.50;;;;;;;;5090401;27;45440;-65
2022/01/23 06:09:17;;;;;;;;;29.50;29.00;;;;;;;;5088690;27;45911;-65
2022/01/23 06:11:42;;;;;;;;;30.25;29.25;;;;;;;;5087039;27;45351;-64
2022/01/23 06:14:08;;;;;;;;;30.75;29.25;;;;;;;;5073446;27;46085;-64
2022/01/23 06:16:34;;;;;;;;;31.75;26.25;;;;;;;;5084550;27;45968;-65
2022/01/23 06:18:59;;;;;;;;;27.25;23.75;;;;;;;;5070431;28;45375;-65
2022/01/23 06:21:26;;;;;;;;;23.50;18.75;;;;;;;;5040839;27;1368240;-64
2022/01/23 06:24:01;;;;;;;;;28.50;26.50;;;;;;;;5086183;27;45622;-65
2022/01/23 06:26:33;;;;;;;;;26.00;23.00;;;;;;;;5088665;27;45425;-65
2022/01/23 06:29:01;;;;;;;;;21.00;19.50;;;;;;;;5064122;28;45425;-64
2022/01/23 06:31:26;;;;;;;;;30.00;26.00;;;;;;;;5067243;27;45393;-64
2022/01/23 06:33:52;;;;;;;;;29.50;24.75;;;;;;;;5090099;27;48552;-64
2022/01/23 06:36:17;;;;;;;;;29.75;25.25;;;;;;;;5088409;27;45519;-65
2022/01/23 06:38:42;;;;;;;;;26.00;25.50;;;;;;;;5087163;27;45324;-65
2022/01/23 06:41:08;;;;;;;;;23.00;22.50;;;;;;;;5066230;28;45461;-65
2022/01/23 06:43:33;;;;;;;;;19.50;19.50;;;;;;;;5067568;27;47407;-65
2022/01/23 06:45:58;;;;;;;;;23.75;20.50;;;;;;;;5072828;27;46204;-64
2022/01/23 06:48:23;;;;;;;;;24.50;20.50;;;;;;;;5092894;27;45315;-65
2022/01/23 06:50:50;;;;;;;;;19.50;17.75;;;;;;;;5085478;27;45480;-65
2022/01/23 06:53:15;;;;;;;;;26.25;20.50;;;;;;;;5087808;27;45912;-64
2022/01/23 06:55:40;;;;;;;;;22.75;20.25;;;;;;;;5084415;27;45642;-65
2022/01/23 06:58:05;;;;;;;;;23.00;18.00;;;;;;;;5070086;28;45557;-64
2022/01/23 07:00:33;;;;;;;;;23.75;20.75;;;;;;;;5090377;27;45309;-64
2022/01/23 07:02:58;;;;;;;;;19.50;19.00;;;;;;;;5066588;27;46613;-64
2022/01/23 07:05:23;;;;;;;;;24.25;17.50;;;;;;;;5087678;27;45781;-65
2022/01/23 07:07:48;;;;;;;;;16.00;16.00;;;;;;;;5086382;27;45351;-64
2022/01/23 07:10:14;;;;;;;;;22.50;19.25;;;;;;;;5087724;27;45340;-65
2022/01/23 07:12:39;;;;;;;;;18.00;17.25;;;;;;;;5070752;27;45822;-64
2022/01/23 07:15:05;;;;;;;;;23.25;20.00;;;;;;;;5069577;27;46187;-65
2022/01/23 07:17:30;;;;;;;;;20.00;18.25;;;;;;;;5074336;27;45440;-65
2022/01/23 07:19:55;;;;;;;;;23.75;22.50;;;;;;;;5058018;28;45305;-65
2022/01/23 07:22:21;;;;;;;;;19.00;17.25;;;;;;;;5087602;27;45874;-64
2022/01/23 07:24:46;;;;;;;;;21.00;20.50;;;;;;;;5085384;27;45980;-64
2022/01/23 07:27:17;;;;;;;;;24.50;20.25;;;;;;;;5087119;27;45602;-64
2022/01/23 07:29:44;;;;;;;;;22.50;19.75;;;;;;;;5086156;27;45306;-63
2022/01/23 07:32:09;;;;;;;;;23.75;21.75;;;;;;;;5086312;27;46784;-65
2022/01/23 07:34:35;;;;;;;;;26.50;22.75;;;;;;;;5085499;27;45425;-65
2022/01/23 07:37:00;;;;;;;;;20.75;17.75;;;;;;;;5087086;27;45391;-65
2022/01/23 07:39:25;;;;;;;;;24.00;18.25;;;;;;;;5089261;27;45533;-65
2022/01/23 07:41:51;;;;;;;;;25.50;21.75;;;;;;;;5067454;27;47722;-66
2022/01/23 07:44:16;;;;;;;;;24.25;19.75;;;;;;;;5088154;27;45348;-65
2022/01/23 07:46:41;;;;;;;;;23.50;19.50;;;;;;;;5084800;27;46368;-65
2022/01/23 07:49:07;;;;;;;;;24.25;23.00;;;;;;;;5088327;27;45524;-66
2022/01/23 07:51:32;;;;;;;;;27.25;19.25;;;;;;;;5090546;27;46648;-64
2022/01/23 07:53:57;;;;;;;;;18.50;18.25;;;;;;;;5086094;27;47790;-66
2022/01/23 07:56:22;;;;;;;;;18.00;17.00;;;;;;;;5087780;27;45592;-66
2022/01/23 07:58:47;;;;;;;;;20.25;18.00;;;;;;;;5073576;27;45611;-64
2022/01/23 08:01:13;;;;;;;;;18.25;16.75;;;;;;;;5086889;27;46378;-64
2022/01/23 08:03:38;;;;;;;;;18.00;17.50;;;;;;;;5087818;27;45362;-64
2022/01/23 08:06:05;;;;;;;;;19.00;16.50;;;;;;;;5074345;27;45505;-64
2022/01/23 08:08:30;;;;;;;;;13.50;10.75;;;;;;;;5083144;27;45405;-64
2022/01/23 08:10:55;;;;;;;;;20.75;16.00;;;;;;;;5080390;27;45479;-65
2022/01/23 08:13:21;;;;;;;;;19.25;16.50;;;;;;;;5079313;27;45427;-65
2022/01/23 08:15:46;;;;;;;;;14.25;12.75;;;;;;;;5072227;27;45563;-65
2022/01/23 08:18:11;;;;;;;;;17.50;17.50;;;;;;;;5087249;27;45362;-65
2022/01/23 08:20:36;;;;;;;;;17.75;15.00;;;;;;;;5086836;27;46055;-66
2022/01/23 08:23:02;;;;;;;;;19.75;15.75;;;;;;;;5064429;28;45440;-65
2022/01/23 08:25:28;;;;;;;;;13.75;13.75;;;;;;;;5081164;27;45504;-65
2022/01/23 08:27:53;;;;;;;;;21.75;19.75;;;;;;;;5089568;27;45491;-63
2022/01/23 08:30:19;;;;;;;;;19.75;17.50;;;;;;;;5086831;27;45719;-63
2022/01/23 08:32:44;;;;;;;;;21.50;19.25;;;;;;;;5084281;27;45802;-65
2022/01/23 08:35:09;;;;;;;;;18.75;18.75;;;;;;;;5086952;27;45513;-65
2022/01/23 08:37:35;;;;;;;;;23.00;19.50;;;;;;;;5084852;27;45373;-65
2022/01/23 08:40:00;;;;;;;;;23.75;20.50;;;;;;;;5069550;28;46487;-66
2022/01/23 08:42:25;;;;;;;;;17.50;15.50;;;;;;;;5088721;27;45350;-65
2022/01/23 08:44:51;;;;;;;;;17.75;16.25;;;;;;;;5085190;27;45282;-64
2022/01/23 08:47:17;;;;;;;;;20.50;18.25;;;;;;;;5087014;27;45337;-65
2022/01/23 08:49:47;;;;;;;;;24.00;22.00;;;;;;;;5091482;27;46964;-64
2022/01/23 08:52:16;;;;;;;;;20.25;18.75;;;;;;;;5086128;27;45365;-65
2022/01/23 08:54:41;;;;;;;;;18.75;15.00;;;;;;;;5083963;27;45507;-64
2022/01/23 08:57:06;;;;;;;;;18.00;16.50;;;;;;;;5051074;28;45425;-65
2022/01/23 08:59:31;;;;;;;;;24.00;17.00;;;;;;;;5054131;27;46082;-64
2022/01/23 09:01:57;;;;;;;;;23.75;20.00;;;;;;;;5083432;27;45418;-64
2022/01/23 09:04:22;;;;;;;;;26.25;22.00;;;;;;;;5080596;27;45329;-63
2022/01/23 09:06:47;;;;;;;;;25.50;23.25;;;;;;;;5085817;27;45460;-63
2022/01/23 09:09:19;;;;;;;;;28.25;23.00;;;;;;;;5085470;27;45631;-63
2022/01/23 09:11:57;;;;;;;;;25.75;20.00;;;;;;;;5067238;27;45441;-64
2022/01/23 09:14:23;;;;;;;;;16.50;14.00;;;;;;;;5087942;27;45409;-64
2022/01/23 09:16:49;;;;;;;;;27.25;25.75;;;;;;;;5086874;27;45614;-63
2022/01/23 09:19:14;;;;;;;;;26.75;23.75;;;;;;;;5089419;27;45358;-63
2022/01/23 09:21:40;;;;;;;;;29.50;24.25;;;;;;;;5076754;27;45921;-64
2022/01/23 09:24:05;;;;;;;;;26.75;25.00;;;;;;;;5071476;28;45519;-63
2022/01/23 09:26:31;;;;;;;;;32.25;28.00;;;;;;;;5059937;28;45315;-62
2022/01/23 09:28:59;;;;;;;;;30.00;24.75;;;;;;;;5068100;28;44961;-63
2022/01/23 09:31:30;;;;;;;;;32.50;28.50;;;;;;;;5066199;28;45563;-63
2022/01/23 09:33:56;;;;;;;;;20.00;19.50;;;;;;;;5071093;28;45366;-64
2022/01/23 09:36:21;;;;;;;;;30.50;29.50;;;;;;;;5070461;28;45394;-63
2022/01/23 09:38:46;;;;;;;;;24.00;20.25;;;;;;;;5067891;28;46010;-64
2022/01/23 09:41:14;;;;;;;;;25.75;23.75;;;;;;;;5049970;28;45425;-64
2022/01/23 09:43:42;;;;;;;;;18.25;17.25;;;;;;;;5066806;28;45374;-63
2022/01/23 09:46:07;;;;;;;;;28.00;25.75;;;;;;;;5067144;28;44820;-63
2022/01/23 09:48:33;;;;;;;;;30.25;26.50;;;;;;;;5072397;27;46435;-63
2022/01/23 09:51:00;;;;;;;;;31.00;25.50;;;;;;;;5067202;28;45774;-64
2022/01/23 09:53:25;;;;;;;;;26.50;19.75;;;;;;;;5069698;27;45339;-64
2022/01/23 09:55:53;;;;;;;;;17.00;17.00;;;;;;;;5066029;28;45283;-64
2022/01/23 09:58:19;;;;;;;;;22.50;21.75;;;;;;;;5050222;28;46901;-63
2022/01/23 10:00:44;;;;;;;;;22.25;22.00;;;;;;;;5070189;28;45517;-63
2022/01/23 10:03:09;;;;;;;;;27.50;24.25;;;;;;;;5048112;28;45556;-63
2022/01/23 10:05:35;;;;;;;;;32.50;27.00;;;;;;;;5073545;27;45457;-63
2022/01/23 10:08:00;;;;;;;;;23.50;21.50;;;;;;;;5074023;27;45371;-61
2022/01/23 10:10:31;;;;;;;;;23.00;21.25;;;;;;;;5073553;28;45443;-64
2022/01/23 10:12:58;;;;;;;;;28.00;26.75;;;;;;;;5073431;28;45792;-65
2022/01/23 10:15:25;;;;;;;;;29.75;26.75;;;;;;;;5053861;28;45539;-63
2022/01/23 10:17:51;;;;;;;;;27.00;24.00;;;;;;;;5073009;28;46363;-64
2022/01/23 10:20:17;;;;;;;;;25.50;22.75;;;;;;;;5044586;27;45861;-63
2022/01/23 10:22:46;;;;;;;;;24.00;21.75;;;;;;;;5078385;27;45424;-63
2022/01/23 10:25:15;;;;;;;;;16.50;14.75;;;;;;;;5076803;27;45299;-63
2022/01/23 10:27:50;;;;;;;;;26.50;23.75;;;;;;;;5075878;27;46410;-64
2022/01/23 10:30:17;;;;;;;;;29.50;22.25;;;;;;;;5073959;27;45614;-64
2022/01/23 10:32:54;;;;;;;;;23.25;21.25;;;;;;;;5058445;28;45424;-63
2022/01/23 10:35:19;;;;;;;;;25.50;23.25;;;;;;;;5078597;27;45492;-64
2022/01/23 10:37:45;;;;;;;;;20.25;19.50;;;;;;;;5077440;27;45611;-63
2022/01/23 10:40:23;;;;;;;;;23.25;21.75;;;;;;;;5058876;27;45473;-65
2022/01/23 10:46:33;;;;;;;;;19.50;18.25;;;;;;;;5075597;27;45370;-64
2022/01/23 10:48:36;;;;;;;;;35.50;29.00;;;;;;;;5061641;27;45519;-63
2022/01/23 10:51:16;;;;;;;;;24.25;21.75;;;;;;;;5056944;28;45434;-64
2022/01/23 10:54:01;;;;;;;;;20.75;18.00;;;;;;;;5087634;27;45455;-63
2022/01/23 10:56:27;;;;;;;;;19.75;18.50;;;;;;;;5060599;28;45479;-64
2022/01/23 10:59:03;;;;;;;;;29.50;25.75;;;;;;;;5058111;28;46409;-63
2022/01/23 11:01:28;;;;;;;;;21.25;19.50;;;;;;;;5073996;27;45943;-63
2022/01/23 11:04:04;;;;;;;;;23.75;21.00;;;;;;;;5075438;27;45587;-64
2022/01/23 11:06:29;;;;;;;;;19.25;17.00;;;;;;;;5060520;27;45520;-64
2022/01/23 11:09:10;;;;;;;;;25.75;23.50;;;;;;;;5056566;28;46378;-64
2022/01/23 11:11:40;;;;;;;;;28.50;24.00;;;;;;;;5068483;27;45855;-63
2022/01/23 11:17:40;;;;;;;;;21.50;18.00;;;;;;;;5081863;27;45693;-65
2022/01/23 11:19:46;;;;;;;;;19.75;18.75;;;;;;;;5070152;27;47013;-65
2022/01/23 11:22:32;;;;;;;;;30.75;28.00;;;;;;;;5088704;27;45494;-64
2022/01/23 11:25:02;;;;;;;;;27.75;23.75;;;;;;;;5092915;27;45495;-64
2022/01/23 11:27:35;;;;;;;;;21.00;21.00;;;;;;;;5074352;27;45514;-65
2022/01/23 11:30:03;;;;;;;;;21.00;20.00;;;;;;;;5092133;27;45747;-64
2022/01/23 11:32:34;;;;;;;;;32.00;27.25;;;;;;;;5094133;27;45455;-64
2022/01/23 11:35:07;;;;;;;;;28.75;24.25;;;;;;;;5091132;27;45458;-64
2022/01/23 11:37:33;;;;;;;;;22.75;19.25;;;;;;;;5090100;27;45433;-64
2022/01/23 11:40:04;;;;;;;;;24.25;23.00;;;;;;;;5081391;27;47452;-65
2022/01/23 11:53:47;;;;;;;;;19.25;19.00;;;;;;;;5093259;27;45493;-65
2022/01/23 11:56:25;;;;;;;;;26.25;24.25;;;;;;;;5085868;27;45889;-65
2022/01/23 11:58:54;;;;;;;;;26.00;23.75;;;;;;;;5078590;27;45829;-65
2022/01/23 12:01:20;;;;;;;;;28.75;23.25;;;;;;;;5065336;28;47675;-65
2022/01/23 12:04:05;;;;;;;;;27.75;23.50;;;;;;;;5082973;27;45577;-65
2022/01/23 12:06:31;;;;;;;;;23.75;20.75;;;;;;;;5079396;27;45528;-65
2022/01/23 12:09:19;;;;;;;;;19.25;17.25;;;;;;;;5091956;27;45537;-65
2022/01/23 12:12:03;;;;;;;;;21.00;18.50;;;;;;;;5090578;27;46512;-65
2022/01/23 12:17:15;;;;;;;;;16.50;15.25;;;;;;;;5090174;27;45353;-65
2022/01/23 12:19:43;;;;;;;;;21.25;20.50;;;;;;;;5091756;27;45502;-65
2022/01/23 12:22:27;;;;;;;;;19.25;17.50;;;;;;;;5063153;28;45421;-65
2022/01/23 12:24:54;;;;;;;;;20.25;19.25;;;;;;;;5056304;27;45425;-65
2022/01/23 12:27:26;;;;;;;;;14.50;14.50;;;;;;;;5070953;27;46014;-62
2022/01/23 12:29:52;;;;;;;;;15.25;15.00;;;;;;;;5089644;27;45489;-63
2022/01/23 12:32:26;;;;;;;;;22.75;19.00;;;;;;;;5089437;27;45424;-63
2022/01/23 12:34:59;;;;;;;;;17.75;17.75;;;;;;;;5077162;27;45591;-64
2022/01/23 12:37:26;;;;;;;;;13.75;13.75;;;;;;;;5065356;27;45341;-64
2022/01/23 12:40:10;;;;;;;;;16.50;15.50;;;;;;;;5071452;27;45487;-64
2022/01/23 12:42:54;;;;;;;;;17.75;15.00;;;;;;;;5089781;27;45385;-64
2022/01/23 12:45:54;;;;;;;;;19.25;19.25;;;;;;;;5076168;27;45518;-65
2022/01/23 12:48:25;;;;;;;;;16.25;13.75;;;;;;;;4976030;28;45595;-64
2022/01/23 12:50:51;;;;;;;;;19.00;15.00;;;;;;;;4975425;28;45953;-64
2022/01/23 12:53:16;;;;;;;;;17.25;16.00;;;;;;;;4966526;28;47489;-64
2022/01/23 12:56:00;;;;;;;;;15.00;13.75;;;;;;;;4970879;28;46243;-64
2022/01/23 12:58:25;;;;;;;;;13.50;12.25;;;;;;;;4986385;28;45515;-64
2022/01/23 13:00:51;;;;;;;;;16.50;16.50;;;;;;;;4991465;28;45471;-64
2022/01/23 13:03:22;;;;;;;;;21.50;18.50;;;;;;;;4985953;28;45757;-64
2022/01/23 13:05:48;;;;;;;;;17.00;17.00;;;;;;;;4992459;28;45806;-63
2022/01/23 13:08:31;;;;;;;;;18.50;18.00;;;;;;;;4981933;28;45561;-64
2022/01/23 13:18:49;;;;;;;;;21.75;19.25;;;;;;;;4978268;28;45791;-65
2022/01/23 13:31:48;;;;;;;;;23.00;20.75;;;;;;;;5067828;28;45427;-64
2022/01/23 13:34:29;;;;;;;;;30.00;25.75;;;;;;;;5067816;28;45728;-65
2022/01/23 13:36:57;;;;;;;;;30.75;25.00;;;;;;;;5070185;28;45456;-65
2022/01/23 13:39:23;;;;;;;;;22.00;21.50;;;;;;;;5055724;28;45503;-65
2022/01/23 13:41:59;;;;;;;;;22.75;22.25;;;;;;;;5071855;28;45440;-66
2022/01/23 13:53:11;;;;;;;;;27.00;25.50;;;;;;;;5023063;28;45719;-66
2022/01/23 13:58:36;;;;;;;;;21.25;19.25;;;;;;;;5020256;28;45324;-65
2022/01/23 14:01:16;;;;;;;;;26.75;24.25;;;;;;;;5019453;28;46175;-66
2022/01/23 14:03:41;;;;;;;;;29.25;29.25;;;;;;;;5027765;28;45876;-64
2022/01/23 14:06:07;;;;;;;;;29.00;24.75;;;;;;;;5029259;28;46478;-65
2022/01/23 14:08:32;;;;;;;;;22.75;20.00;;;;;;;;5028955;28;45440;-65
2022/01/23 14:10:57;;;;;;;;;32.25;28.25;;;;;;;;5029821;28;46264;-64
2022/01/23 14:13:24;;;;;;;;;34.50;31.00;;;;;;;;5028857;28;46041;-65
2022/01/23 14:15:50;;;;;;;;;30.50;25.50;;;;;;;;5020147;28;47466;-65
2022/01/23 14:18:26;;;;;;;;;31.75;29.50;;;;;;;;5021938;28;45694;-65
2022/01/23 14:21:00;;;;;;;;;31.00;28.50;;;;;;;;5027895;28;45533;-65
2022/01/23 14:23:25;;;;;;;;;32.50;26.25;;;;;;;;5030053;28;45605;-65
2022/01/23 14:25:59;;;;;;;;;25.75;25.75;;;;;;;;5029381;28;45793;-65
2022/01/23 14:28:28;;;;;;;;;34.00;31.00;;;;;;;;5023006;28;45638;-65
2022/01/23 14:31:01;;;;;;;;;36.75;32.50;;;;;;;;5070168;27;45530;-65
2022/01/23 14:33:31;;;;;;;;;58.50;46.50;;;;;;;;5084570;27;45636;-65
2022/01/23 14:35:57;;;;;;;;;35.50;33.25;;;;;;;;5088437;27;45856;-65
2022/01/23 14:38:23;;;;;;;;;27.25;27.00;;;;;;;;5093402;27;45524;-66
2022/01/23 14:40:52;;;;;;;;;28.25;23.25;;;;;;;;5079918;27;45596;-65
2022/01/23 14:43:18;;;;;;;;;30.25;27.25;;;;;;;;5078098;27;45518;-64
2022/01/23 14:45:48;;;;;;;;;33.75;31.00;;;;;;;;5079169;27;48606;-66
2022/01/23 14:48:14;;;;;;;;;29.00;28.00;;;;;;;;5100098;27;45492;-64
2022/01/23 14:50:42;;;;;;;;;33.25;29.75;;;;;;;;5091336;27;45467;-64
2022/01/23 14:53:12;;;;;;;;;36.25;33.00;;;;;;;;5084950;27;45563;-64
2022/01/23 14:55:39;;;;;;;;;41.50;37.50;;;;;;;;5091171;27;45631;-65
2022/01/23 14:58:04;;;;;;;;;30.00;27.75;;;;;;;;5082166;27;45454;-65
2022/01/23 15:00:32;;;;;;;;;30.50;28.00;;;;;;;;5091859;27;45725;-65
2022/01/23 15:02:59;;;;;;;;;32.50;29.00;;;;;;;;5085045;27;45639;-66
2022/01/23 15:05:29;;;;;;;;;35.00;31.25;;;;;;;;5090075;27;46799;-65
2022/01/23 15:07:54;;;;;;;;;34.00;30.00;;;;;;;;5082162;27;45506;-65
2022/01/23 15:10:19;;;;;;;;;33.75;27.75;;;;;;;;5081751;27;45454;-65
2022/01/23 15:12:45;;;;;;;;;28.00;24.75;;;;;;;;5089562;27;45660;-65
2022/01/23 15:15:10;;;;;;;;;33.00;27.25;;;;;;;;5085371;27;46613;-65
2022/01/23 15:17:37;;;;;;;;;29.50;29.50;;;;;;;;5085298;27;45490;-65
2022/01/23 15:20:03;;;;;;;;;25.25;25.25;;;;;;;;5077489;27;45424;-64
2022/01/23 15:22:28;;;;;;;;;32.00;24.00;;;;;;;;5086735;27;45509;-65
2022/01/23 15:24:53;;;;;;;;;35.25;30.75;;;;;;;;5097832;27;47463;-65
2022/01/23 15:27:18;;;;;;;;;26.00;24.25;;;;;;;;5087879;27;45538;-65
2022/01/23 15:29:44;;;;;;;;;27.75;26.75;;;;;;;;5094259;27;45457;-65
2022/01/23 15:32:09;;;;;;;;;30.75;27.00;;;;;;;;5087276;27;45480;-65
2022/01/23 15:34:36;;;;;;;;;27.75;20.25;;;;;;;;5089191;27;47610;-65
2022/01/23 15:37:02;;;;;;;;;29.50;27.50;;;;;;;;5096814;27;45921;-65
2022/01/23 15:39:28;;;;;;;;;28.50;26.00;;;;;;;;5085610;27;45468;-65
2022/01/23 15:41:54;;;;;;;;;38.00;33.50;;;;;;;;5093464;27;45405;-65
2022/01/23 15:44:19;;;;;;;;;33.75;29.25;;;;;;;;5091036;27;48762;-65
2022/01/23 15:46:46;;;;;;;;;33.00;24.50;;;;;;;;5079949;27;45471;-64
2022/01/23 15:49:11;;;;;;;;;26.25;20.00;;;;;;;;5091276;27;45589;-65
2022/01/23 15:51:37;;;;;;;;;37.75;31.25;;;;;;;;5084938;27;45435;-64
2022/01/23 15:54:03;;;;;;;;;35.25;31.75;;;;;;;;5076808;27;47768;-64
2022/01/23 15:56:29;;;;;;;;;35.50;34.00;;;;;;;;5079481;27;45679;-64
2022/01/23 15:58:54;;;;;;;;;36.25;32.00;;;;;;;;5087015;27;45551;-65
2022/01/23 16:01:19;;;;;;;;;28.75;28.25;;;;;;;;5086497;27;45541;-64
2022/01/23 16:03:44;;;;;;;;;33.50;29.50;;;;;;;;5087319;27;46391;-65
2022/01/23 16:06:10;;;;;;;;;35.25;29.50;;;;;;;;5091450;27;45488;-65
2022/01/23 16:08:38;;;;;;;;;28.75;27.25;;;;;;;;5084054;27;45409;-64
2022/01/23 16:11:05;;;;;;;;;35.00;32.25;;;;;;;;5092610;27;45474;-64
2022/01/23 16:13:31;;;;;;;;;33.00;32.50;;;;;;;;5083242;27;46052;-65
2022/01/23 16:15:56;;;;;;;;;29.25;28.50;;;;;;;;5081522;27;46254;-65
2022/01/23 16:18:21;;;;;;;;;34.75;31.00;;;;;;;;5082039;27;45793;-64
2022/01/23 16:20:47;;;;;;;;;36.50;29.50;;;;;;;;5089150;27;45656;-64
2022/01/23 16:23:12;;;;;;;;;32.75;29.75;;;;;;;;5090210;27;46679;-65
2022/01/23 16:25:37;;;;;;;;;31.75;28.75;;;;;;;;5082883;27;45503;-65
2022/01/23 16:28:03;;;;;;;;;36.50;36.25;;;;;;;;5084786;27;45565;-65
2022/01/23 16:30:41;;;;;;;;;40.00;34.75;;;;;;;;5096852;27;45545;-65
2022/01/23 16:33:07;;;;;;;;;34.25;31.25;;;;;;;;5087656;27;46292;-64
2022/01/23 16:35:32;;;;;;;;;30.50;27.75;;;;;;;;5095971;27;45604;-64
2022/01/23 16:37:57;;;;;;;;;31.00;27.25;;;;;;;;5092616;27;45659;-64
2022/01/23 16:40:22;;;;;;;;;34.50;33.00;;;;;;;;5092120;27;45885;-65
2022/01/23 16:42:50;;;;;;;;;31.00;28.00;;;;;;;;5093556;27;46302;-62
2022/01/23 16:45:16;;;;;;;;;34.50;29.25;;;;;;;;5082638;27;45571;-64
2022/01/23 16:47:41;;;;;;;;;25.75;23.25;;;;;;;;5091464;27;45354;-64
2022/01/23 16:50:07;;;;;;;;;30.00;27.50;;;;;;;;5092313;27;45571;-65
2022/01/23 16:52:33;;;;;;;;;35.25;32.00;;;;;;;;5087588;27;46391;-66
2022/01/23 16:54:58;;;;;;;;;33.75;28.25;;;;;;;;5099403;27;45399;-67
2022/01/23 16:57:24;;;;;;;;;29.50;27.00;;;;;;;;5094890;27;45704;-68
2022/01/23 16:59:49;;;;;;;;;36.50;31.00;;;;;;;;5097182;27;45341;-66
2022/01/23 17:02:14;;;;;;;;;40.00;35.00;;;;;;;;5093522;27;48974;-67
2022/01/23 17:04:40;;;;;;;;;28.25;24.50;;;;;;;;5093763;27;45447;-67
2022/01/23 17:07:05;;;;;;;;;30.25;25.00;;;;;;;;5088344;27;45467;-67
2022/01/23 17:09:31;;;;;;;;;26.50;19.50;;;;;;;;5096345;27;45640;-67
2022/01/23 17:11:59;;;;;;;;;23.50;23.50;;;;;;;;5094285;27;46302;-67
2022/01/23 17:14:24;;;;;;;;;24.50;24.00;;;;;;;;5097471;27;45420;-69
2022/01/23 17:16:50;;;;;;;;;37.00;29.50;;;;;;;;5079924;27;45408;-67
2022/01/23 17:19:15;;;;;;;;;34.00;29.75;;;;;;;;5099079;27;45413;-67
2022/01/23 17:21:40;;;;;;;;;34.25;29.00;;;;;;;;5088996;27;45797;-67
2022/01/23 17:24:06;;;;;;;;;30.75;29.50;;;;;;;;5088548;27;45399;-67
2022/01/23 17:26:33;;;;;;;;;31.75;26.50;;;;;;;;5097403;27;45344;-67
2022/01/23 17:28:58;;;;;;;;;33.00;31.25;;;;;;;;5075056;27;45644;-67
2022/01/23 17:31:25;;;;;;;;;37.25;33.75;;;;;;;;5091736;27;45518;-67
2022/01/23 17:33:50;;;;;;;;;43.00;36.00;;;;;;;;5091896;27;45376;-66
2022/01/23 17:36:15;;;;;;;;;41.00;33.25;;;;;;;;5089366;27;45870;-67
2022/01/23 17:38:44;;;;;;;;;24.00;23.75;;;;;;;;5074238;27;45484;-67